Soaring Guidance
Issued by NWS Reno, NV

Home | Current Version | Previous Version | Text Only | Print | Product List | Glossary On
Versions: 1 2 3 4 5 6 7 8 9 10 11 12 13 14 15 16
989
UXUS97 KREV 271346
SRGREV

SOARING FORECAST
NATIONAL WEATHER SERVICE - RENO NV
700 AM PDT FRI MAY 27 2016

THIS SOARING FORECAST IS FOR THE EASTERN SIERRA AND WESTERN NEVADA
WITH SPECIFIC INDICES FOR THE GREATER RENO AREA.

THIS FORECAST IS PREPARED DAILY BY 700 AM AND IS NOT UPDATED.

FOR CURRENT FLIGHT CONDITIONS...FORECASTS...AND ADVISORIES...ACCESS
YOUR LOCAL BRIEFING OUTLET OR FLIGHT SERVICE STATION.

*******************************************************************
FORECASTED LOCAL INDICES FOR RENO:        TODAY     YESTERDAY
FORECASTED MAX TEMP AT RENO (DEG F).....     76          74
FORECASTED TRIGGER TEMPERATURE (DEG F)..     58          58
   EXCEEDED YESTERDAY BY 855 AM PDT
FORECASTED MAXIMUM ALTITUDE (FT MSL)....  15300       13800
FORECASTED SOARING INDEX (FPM)..........    819         654
FORECASTED K-INDEX.........VALID 18Z....     20          24
FORECASTED K-INDEX.........VALID 00Z....     23          28
FORECASTED LIFTED INDEX....VALID 18Z....      4           3
FORECASTED LIFTED INDEX....VALID 00Z....      4           3

AFTERNOON WINDS ALOFT FORECAST
MSL (FT) WIND/TEMP
9000  3111/+08
10000 2912/+05
12000 2813/-01
14000 2815/-06
16000 2817/-11
18000 2922/-16
24000 3026/-27
30000 2932/-44
34000 2834/-54
39000 2837/-62

SLIDE MOUNTAIN DATA:
     DATE       TIME     TEMP  DEWPT   RH         WIND (MPH)
                        (F)   (F)           | DIR  SPEED GUST
2016-05-27    05:50      36    23     63    | 000    0    0
2016-05-27    05:30      36    23     65    | 265    0    0
2016-05-27    05:20      36    23     64    | 270    1    3
2016-05-27    05:00      36    23     63    | 265    0    1

RENO TAF FORECAST:
KRNO 271157Z 2712/2812 VRB03KT P6SM SKC
     FM272000 35008G18KT P6SM SCT080
     FM280600 33005KT P6SM SKC

CARSON CITY TAF FORECAST:
KCXP 271157Z 2712/2812 VRB03KT P6SM SCT080
     FM271900 28008G18KT P6SM VCSH FEW080
     FM280500 35006KT P6SM SCT080

OUTLOOK FOR THE RENO-CARSON CITY-MINDEN AREA:
.SATURDAY...PARTLY CLOUDY. SLIGHT CHANCE OF SHOWERS AND
THUNDERSTORMS IN THE AFTERNOON. HIGHS 73 TO 78. LIGHT WINDS.

SUNRISE AND SUNSET
MAY 27 2016...........SUNRISE   536 AM PDT   SUNSET   817 PM PDT
MAY 28 2016...........SUNRISE   535 AM PDT   SUNSET   818 PM PDT



USA.gov is the U.S. government's official web portal to all federal, state and local government web resources and services.